sensor_id;sensor_type;location;lat;lon;timestamp;P1;durP1;ratioP1;P2;durP2;ratioP2
73599;SDS011;61877;48.246;9.220;2023-03-12T00:00:52;10.50;;;5.43;;
73599;SDS011;61877;48.246;9.220;2023-03-12T00:03:18;10.40;;;5.10;;
73599;SDS011;61877;48.246;9.220;2023-03-12T00:05:44;9.37;;;5.30;;
73599;SDS011;61877;48.246;9.220;2023-03-12T00:08:10;10.45;;;5.03;;
73599;SDS011;61877;48.246;9.220;2023-03-12T00:10:37;9.30;;;5.22;;
73599;SDS011;61877;48.246;9.220;2023-03-12T00:13:03;11.30;;;5.30;;
73599;SDS011;61877;48.246;9.220;2023-03-12T00:15:28;9.70;;;5.45;;
73599;SDS011;61877;48.246;9.220;2023-03-12T00:17:54;9.43;;;5.40;;
73599;SDS011;61877;48.246;9.220;2023-03-12T00:20:21;9.93;;;5.50;;
73599;SDS011;61877;48.246;9.220;2023-03-12T00:22:46;10.60;;;5.43;;
73599;SDS011;61877;48.246;9.220;2023-03-12T00:25:13;9.97;;;5.60;;
73599;SDS011;61877;48.246;9.220;2023-03-12T00:27:40;11.73;;;5.28;;
73599;SDS011;61877;48.246;9.220;2023-03-12T00:30:06;10.43;;;5.18;;
73599;SDS011;61877;48.246;9.220;2023-03-12T00:32:33;9.13;;;4.88;;
73599;SDS011;61877;48.246;9.220;2023-03-12T00:34:59;11.70;;;5.20;;
73599;SDS011;61877;48.246;9.220;2023-03-12T00:37:26;9.68;;;4.47;;
73599;SDS011;61877;48.246;9.220;2023-03-12T00:39:51;9.73;;;5.00;;
73599;SDS011;61877;48.246;9.220;2023-03-12T00:42:17;10.20;;;5.07;;
73599;SDS011;61877;48.246;9.220;2023-03-12T00:44:43;9.52;;;4.80;;
73599;SDS011;61877;48.246;9.220;2023-03-12T00:47:09;9.88;;;5.18;;
73599;SDS011;61877;48.246;9.220;2023-03-12T00:49:35;9.27;;;4.73;;
73599;SDS011;61877;48.246;9.220;2023-03-12T00:52:00;10.63;;;5.25;;
73599;SDS011;61877;48.246;9.220;2023-03-12T00:54:27;9.20;;;5.13;;
73599;SDS011;61877;48.246;9.220;2023-03-12T00:56:53;8.95;;;4.80;;
73599;SDS011;61877;48.246;9.220;2023-03-12T00:59:18;10.03;;;5.10;;
73599;SDS011;61877;48.246;9.220;2023-03-12T01:01:43;11.03;;;5.50;;
73599;SDS011;61877;48.246;9.220;2023-03-12T01:04:10;10.30;;;5.32;;
73599;SDS011;61877;48.246;9.220;2023-03-12T01:06:36;10.25;;;4.97;;
73599;SDS011;61877;48.246;9.220;2023-03-12T01:09:02;12.00;;;5.47;;
73599;SDS011;61877;48.246;9.220;2023-03-12T01:11:30;9.73;;;4.93;;
73599;SDS011;61877;48.246;9.220;2023-03-12T01:13:56;11.18;;;5.93;;
73599;SDS011;61877;48.246;9.220;2023-03-12T01:16:22;11.93;;;5.63;;
73599;SDS011;61877;48.246;9.220;2023-03-12T01:18:47;10.13;;;5.77;;
73599;SDS011;61877;48.246;9.220;2023-03-12T01:21:13;10.60;;;5.22;;
73599;SDS011;61877;48.246;9.220;2023-03-12T01:23:38;10.13;;;5.20;;
73599;SDS011;61877;48.246;9.220;2023-03-12T01:26:03;11.50;;;5.27;;
73599;SDS011;61877;48.246;9.220;2023-03-12T01:28:30;11.53;;;5.50;;
73599;SDS011;61877;48.246;9.220;2023-03-12T01:30:55;10.90;;;5.68;;
73599;SDS011;61877;48.246;9.220;2023-03-12T01:33:21;11.87;;;5.63;;
73599;SDS011;61877;48.246;9.220;2023-03-12T01:35:46;11.47;;;5.93;;
73599;SDS011;61877;48.246;9.220;2023-03-12T01:38:13;10.65;;;6.07;;
73599;SDS011;61877;48.246;9.220;2023-03-12T01:40:40;11.18;;;5.60;;
73599;SDS011;61877;48.246;9.220;2023-03-12T01:46:13;10.43;;;5.72;;
73599;SDS011;61877;48.246;9.220;2023-03-12T01:48:52;12.90;;;5.93;;
73599;SDS011;61877;48.246;9.220;2023-03-12T01:51:21;10.07;;;6.00;;
73599;SDS011;61877;48.246;9.220;2023-03-12T01:53:50;10.98;;;6.32;;
73599;SDS011;61877;48.246;9.220;2023-03-12T01:56:17;13.50;;;6.57;;
73599;SDS011;61877;48.246;9.220;2023-03-12T01:58:45;12.48;;;7.15;;
73599;SDS011;61877;48.246;9.220;2023-03-12T02:01:15;13.82;;;7.18;;
73599;SDS011;61877;48.246;9.220;2023-03-12T02:03:41;14.70;;;7.32;;
73599;SDS011;61877;48.246;9.220;2023-03-12T02:06:10;14.02;;;7.70;;
73599;SDS011;61877;48.246;9.220;2023-03-12T02:08:39;15.53;;;7.73;;
73599;SDS011;61877;48.246;9.220;2023-03-12T02:11:08;15.48;;;8.25;;
73599;SDS011;61877;48.246;9.220;2023-03-12T02:13:33;17.23;;;8.68;;
73599;SDS011;61877;48.246;9.220;2023-03-12T02:15:59;14.53;;;8.40;;
73599;SDS011;61877;48.246;9.220;2023-03-12T02:18:26;15.20;;;8.17;;
73599;SDS011;61877;48.246;9.220;2023-03-12T02:20:55;16.40;;;8.80;;
73599;SDS011;61877;48.246;9.220;2023-03-12T02:23:25;15.88;;;8.35;;
73599;SDS011;61877;48.246;9.220;2023-03-12T02:25:56;16.52;;;8.02;;
73599;SDS011;61877;48.246;9.220;2023-03-12T02:28:24;14.98;;;8.15;;
73599;SDS011;61877;48.246;9.220;2023-03-12T02:30:53;14.43;;;7.72;;
73599;SDS011;61877;48.246;9.220;2023-03-12T02:33:22;14.77;;;7.87;;
73599;SDS011;61877;48.246;9.220;2023-03-12T02:35:48;15.77;;;8.00;;
73599;SDS011;61877;48.246;9.220;2023-03-12T02:41:00;14.00;;;7.28;;
73599;SDS011;61877;48.246;9.220;2023-03-12T02:43:29;15.50;;;7.47;;
73599;SDS011;61877;48.246;9.220;2023-03-12T02:45:55;14.80;;;7.77;;
73599;SDS011;61877;48.246;9.220;2023-03-12T02:48:20;15.33;;;7.83;;
73599;SDS011;61877;48.246;9.220;2023-03-12T02:50:46;16.30;;;7.45;;
73599;SDS011;61877;48.246;9.220;2023-03-12T02:53:11;16.67;;;7.67;;
73599;SDS011;61877;48.246;9.220;2023-03-12T02:55:37;14.97;;;7.80;;
73599;SDS011;61877;48.246;9.220;2023-03-12T02:58:03;14.93;;;7.43;;
73599;SDS011;61877;48.246;9.220;2023-03-12T03:00:29;15.20;;;8.10;;
73599;SDS011;61877;48.246;9.220;2023-03-12T03:02:54;14.23;;;7.83;;
73599;SDS011;61877;48.246;9.220;2023-03-12T03:05:20;14.57;;;7.78;;
73599;SDS011;61877;48.246;9.220;2023-03-12T03:07:45;14.53;;;7.20;;
73599;SDS011;61877;48.246;9.220;2023-03-12T03:10:11;15.73;;;7.13;;
73599;SDS011;61877;48.246;9.220;2023-03-12T03:12:36;14.40;;;6.90;;
73599;SDS011;61877;48.246;9.220;2023-03-12T03:15:03;13.73;;;7.50;;
73599;SDS011;61877;48.246;9.220;2023-03-12T03:17:29;12.50;;;6.93;;
73599;SDS011;61877;48.246;9.220;2023-03-12T03:19:55;13.55;;;7.13;;
73599;SDS011;61877;48.246;9.220;2023-03-12T03:22:20;14.97;;;7.50;;
73599;SDS011;61877;48.246;9.220;2023-03-12T03:24:46;16.35;;;7.32;;
73599;SDS011;61877;48.246;9.220;2023-03-12T03:27:12;13.03;;;6.80;;
73599;SDS011;61877;48.246;9.220;2023-03-12T03:29:37;12.35;;;6.78;;
73599;SDS011;61877;48.246;9.220;2023-03-12T03:32:04;12.97;;;6.80;;
73599;SDS011;61877;48.246;9.220;2023-03-12T03:34:31;12.38;;;6.88;;
73599;SDS011;61877;48.246;9.220;2023-03-12T03:36:56;12.55;;;6.50;;
73599;SDS011;61877;48.246;9.220;2023-03-12T03:39:22;12.33;;;6.60;;
73599;SDS011;61877;48.246;9.220;2023-03-12T03:41:47;13.17;;;6.83;;
73599;SDS011;61877;48.246;9.220;2023-03-12T03:44:13;13.47;;;6.73;;
73599;SDS011;61877;48.246;9.220;2023-03-12T03:46:38;15.53;;;7.37;;
73599;SDS011;61877;48.246;9.220;2023-03-12T03:49:05;13.77;;;6.85;;
73599;SDS011;61877;48.246;9.220;2023-03-12T03:51:30;11.45;;;6.65;;
73599;SDS011;61877;48.246;9.220;2023-03-12T03:53:57;13.90;;;6.50;;
73599;SDS011;61877;48.246;9.220;2023-03-12T03:56:22;12.65;;;6.97;;
73599;SDS011;61877;48.246;9.220;2023-03-12T03:58:47;12.87;;;6.67;;
73599;SDS011;61877;48.246;9.220;2023-03-12T04:01:13;12.87;;;6.50;;
73599;SDS011;61877;48.246;9.220;2023-03-12T04:03:39;11.48;;;6.13;;
73599;SDS011;61877;48.246;9.220;2023-03-12T04:06:06;13.23;;;6.50;;
73599;SDS011;61877;48.246;9.220;2023-03-12T04:08:33;11.60;;;6.37;;
73599;SDS011;61877;48.246;9.220;2023-03-12T04:11:04;13.75;;;6.60;;
73599;SDS011;61877;48.246;9.220;2023-03-12T04:13:31;12.13;;;6.20;;
73599;SDS011;61877;48.246;9.220;2023-03-12T04:15:56;11.20;;;5.93;;
73599;SDS011;61877;48.246;9.220;2023-03-12T04:18:21;12.50;;;6.43;;
73599;SDS011;61877;48.246;9.220;2023-03-12T04:20:47;11.25;;;6.13;;
73599;SDS011;61877;48.246;9.220;2023-03-12T04:23:13;12.27;;;6.23;;
73599;SDS011;61877;48.246;9.220;2023-03-12T04:25:39;11.02;;;6.20;;
73599;SDS011;61877;48.246;9.220;2023-03-12T04:28:04;10.13;;;5.47;;
73599;SDS011;61877;48.246;9.220;2023-03-12T04:30:30;10.93;;;6.10;;
73599;SDS011;61877;48.246;9.220;2023-03-12T04:32:55;10.53;;;6.00;;
73599;SDS011;61877;48.246;9.220;2023-03-12T04:35:21;10.63;;;5.70;;
73599;SDS011;61877;48.246;9.220;2023-03-12T04:37:46;12.67;;;6.17;;
73599;SDS011;61877;48.246;9.220;2023-03-12T04:40:13;12.07;;;6.10;;
73599;SDS011;61877;48.246;9.220;2023-03-12T04:42:38;11.05;;;5.85;;
73599;SDS011;61877;48.246;9.220;2023-03-12T04:45:04;11.57;;;6.03;;
73599;SDS011;61877;48.246;9.220;2023-03-12T04:47:31;12.02;;;6.10;;
73599;SDS011;61877;48.246;9.220;2023-03-12T04:49:56;11.63;;;6.03;;
73599;SDS011;61877;48.246;9.220;2023-03-12T04:52:22;12.20;;;6.20;;
73599;SDS011;61877;48.246;9.220;2023-03-12T04:54:48;13.32;;;6.30;;
73599;SDS011;61877;48.246;9.220;2023-03-12T04:57:16;12.17;;;6.00;;
73599;SDS011;61877;48.246;9.220;2023-03-12T04:59:41;11.55;;;5.88;;
73599;SDS011;61877;48.246;9.220;2023-03-12T05:02:06;12.40;;;6.70;;
73599;SDS011;61877;48.246;9.220;2023-03-12T05:04:32;12.57;;;6.40;;
73599;SDS011;61877;48.246;9.220;2023-03-12T05:06:57;14.10;;;7.17;;
73599;SDS011;61877;48.246;9.220;2023-03-12T05:09:23;15.03;;;7.10;;
73599;SDS011;61877;48.246;9.220;2023-03-12T05:11:48;15.07;;;7.60;;
73599;SDS011;61877;48.246;9.220;2023-03-12T05:14:15;16.70;;;7.90;;
73599;SDS011;61877;48.246;9.220;2023-03-12T05:16:40;17.25;;;8.40;;
73599;SDS011;61877;48.246;9.220;2023-03-12T05:19:06;19.27;;;8.50;;
73599;SDS011;61877;48.246;9.220;2023-03-12T05:21:31;22.47;;;9.40;;
73599;SDS011;61877;48.246;9.220;2023-03-12T05:23:57;21.08;;;9.93;;
73599;SDS011;61877;48.246;9.220;2023-03-12T05:26:24;22.60;;;9.80;;
73599;SDS011;61877;48.246;9.220;2023-03-12T05:28:50;20.23;;;9.33;;
73599;SDS011;61877;48.246;9.220;2023-03-12T05:31:18;25.52;;;10.85;;
73599;SDS011;61877;48.246;9.220;2023-03-12T05:33:44;25.85;;;10.93;;
73599;SDS011;61877;48.246;9.220;2023-03-12T05:36:10;22.80;;;10.40;;
73599;SDS011;61877;48.246;9.220;2023-03-12T05:38:36;23.88;;;10.52;;
73599;SDS011;61877;48.246;9.220;2023-03-12T05:41:02;25.87;;;11.40;;
73599;SDS011;61877;48.246;9.220;2023-03-12T05:43:28;28.77;;;11.00;;
73599;SDS011;61877;48.246;9.220;2023-03-12T05:45:56;29.43;;;11.20;;
73599;SDS011;61877;48.246;9.220;2023-03-12T05:48:24;28.10;;;11.70;;
73599;SDS011;61877;48.246;9.220;2023-03-12T05:50:50;28.20;;;11.73;;
73599;SDS011;61877;48.246;9.220;2023-03-12T05:53:15;28.27;;;12.00;;
73599;SDS011;61877;48.246;9.220;2023-03-12T05:55:41;27.75;;;11.65;;
73599;SDS011;61877;48.246;9.220;2023-03-12T05:58:06;30.00;;;12.50;;
73599;SDS011;61877;48.246;9.220;2023-03-12T06:00:32;30.80;;;12.57;;
73599;SDS011;61877;48.246;9.220;2023-03-12T06:02:58;31.13;;;13.20;;
73599;SDS011;61877;48.246;9.220;2023-03-12T06:05:25;33.00;;;12.20;;
73599;SDS011;61877;48.246;9.220;2023-03-12T06:07:50;28.80;;;12.18;;
73599;SDS011;61877;48.246;9.220;2023-03-12T06:10:16;27.37;;;11.47;;
73599;SDS011;61877;48.246;9.220;2023-03-12T06:12:41;28.50;;;11.93;;
73599;SDS011;61877;48.246;9.220;2023-03-12T06:15:07;32.07;;;13.10;;
73599;SDS011;61877;48.246;9.220;2023-03-12T06:17:33;33.45;;;12.48;;
73599;SDS011;61877;48.246;9.220;2023-03-12T06:19:59;32.63;;;13.00;;
73599;SDS011;61877;48.246;9.220;2023-03-12T06:22:25;30.40;;;12.43;;
73599;SDS011;61877;48.246;9.220;2023-03-12T06:24:51;28.15;;;11.55;;
73599;SDS011;61877;48.246;9.220;2023-03-12T06:27:17;31.23;;;12.60;;
73599;SDS011;61877;48.246;9.220;2023-03-12T06:29:42;28.73;;;12.10;;
73599;SDS011;61877;48.246;9.220;2023-03-12T06:32:08;30.52;;;13.38;;
73599;SDS011;61877;48.246;9.220;2023-03-12T06:34:33;30.20;;;12.63;;
73599;SDS011;61877;48.246;9.220;2023-03-12T06:36:59;33.10;;;13.07;;
73599;SDS011;61877;48.246;9.220;2023-03-12T06:39:25;29.63;;;13.05;;
73599;SDS011;61877;48.246;9.220;2023-03-12T06:41:51;30.17;;;12.43;;
73599;SDS011;61877;48.246;9.220;2023-03-12T06:50:25;27.27;;;12.20;;
73599;SDS011;61877;48.246;9.220;2023-03-12T06:52:55;26.42;;;11.23;;
73599;SDS011;61877;48.246;9.220;2023-03-12T06:55:33;28.02;;;12.07;;
73599;SDS011;61877;48.246;9.220;2023-03-12T06:57:59;29.60;;;12.50;;
73599;SDS011;61877;48.246;9.220;2023-03-12T07:00:26;33.20;;;14.20;;
73599;SDS011;61877;48.246;9.220;2023-03-12T07:02:57;29.98;;;11.88;;
73599;SDS011;61877;48.246;9.220;2023-03-12T07:05:23;26.30;;;11.57;;
73599;SDS011;61877;48.246;9.220;2023-03-12T07:07:52;24.83;;;10.10;;
73599;SDS011;61877;48.246;9.220;2023-03-12T07:10:24;25.67;;;10.73;;
73599;SDS011;61877;48.246;9.220;2023-03-12T07:13:12;23.55;;;10.23;;
73599;SDS011;61877;48.246;9.220;2023-03-12T07:18:19;23.80;;;10.33;;
73599;SDS011;61877;48.246;9.220;2023-03-12T07:20:51;24.63;;;11.13;;
73599;SDS011;61877;48.246;9.220;2023-03-12T07:23:57;23.00;;;10.98;;
73599;SDS011;61877;48.246;9.220;2023-03-12T07:26:16;25.45;;;11.10;;
73599;SDS011;61877;48.246;9.220;2023-03-12T07:29:02;24.92;;;11.15;;
73599;SDS011;61877;48.246;9.220;2023-03-12T07:31:28;22.33;;;10.00;;
73599;SDS011;61877;48.246;9.220;2023-03-12T07:33:54;24.63;;;11.27;;
73599;SDS011;61877;48.246;9.220;2023-03-12T07:36:20;21.88;;;10.13;;
73599;SDS011;61877;48.246;9.220;2023-03-12T07:44:57;23.73;;;9.60;;
73599;SDS011;61877;48.246;9.220;2023-03-12T07:47:27;21.20;;;9.20;;
73599;SDS011;61877;48.246;9.220;2023-03-12T07:50:00;20.27;;;9.03;;
73599;SDS011;61877;48.246;9.220;2023-03-12T07:52:29;21.80;;;10.18;;
73599;SDS011;61877;48.246;9.220;2023-03-12T07:54:57;22.42;;;9.57;;
73599;SDS011;61877;48.246;9.220;2023-03-12T07:57:24;19.83;;;9.32;;
73599;SDS011;61877;48.246;9.220;2023-03-12T07:59:52;20.17;;;9.50;;
73599;SDS011;61877;48.246;9.220;2023-03-12T08:02:18;18.87;;;8.90;;
73599;SDS011;61877;48.246;9.220;2023-03-12T08:04:48;20.33;;;8.70;;
73599;SDS011;61877;48.246;9.220;2023-03-12T08:07:14;17.53;;;8.30;;
73599;SDS011;61877;48.246;9.220;2023-03-12T08:09:41;18.42;;;8.25;;
73599;SDS011;61877;48.246;9.220;2023-03-12T08:12:10;20.17;;;9.20;;
73599;SDS011;61877;48.246;9.220;2023-03-12T08:14:38;18.17;;;8.15;;
73599;SDS011;61877;48.246;9.220;2023-03-12T08:17:03;18.70;;;8.35;;
73599;SDS011;61877;48.246;9.220;2023-03-12T08:19:34;20.00;;;8.87;;
73599;SDS011;61877;48.246;9.220;2023-03-12T08:22:00;16.55;;;7.88;;
73599;SDS011;61877;48.246;9.220;2023-03-12T08:24:32;16.30;;;7.43;;
73599;SDS011;61877;48.246;9.220;2023-03-12T08:27:01;17.98;;;8.30;;
73599;SDS011;61877;48.246;9.220;2023-03-12T08:29:35;15.48;;;7.43;;
73599;SDS011;61877;48.246;9.220;2023-03-12T08:32:02;14.75;;;6.65;;
73599;SDS011;61877;48.246;9.220;2023-03-12T08:34:37;16.90;;;7.40;;
73599;SDS011;61877;48.246;9.220;2023-03-12T08:37:06;16.63;;;7.93;;
73599;SDS011;61877;48.246;9.220;2023-03-12T08:39:32;15.05;;;7.50;;
73599;SDS011;61877;48.246;9.220;2023-03-12T08:41:59;15.30;;;7.60;;
73599;SDS011;61877;48.246;9.220;2023-03-12T08:44:28;15.48;;;7.60;;
73599;SDS011;61877;48.246;9.220;2023-03-12T08:46:57;15.82;;;6.90;;
73599;SDS011;61877;48.246;9.220;2023-03-12T08:49:51;17.23;;;8.47;;
73599;SDS011;61877;48.246;9.220;2023-03-12T08:58:23;14.40;;;6.53;;
73599;SDS011;61877;48.246;9.220;2023-03-12T09:00:52;13.25;;;6.53;;
73599;SDS011;61877;48.246;9.220;2023-03-12T09:03:18;13.80;;;6.57;;
73599;SDS011;61877;48.246;9.220;2023-03-12T09:11:45;13.67;;;6.87;;
73599;SDS011;61877;48.246;9.220;2023-03-12T09:14:17;13.63;;;6.32;;
73599;SDS011;61877;48.246;9.220;2023-03-12T09:22:56;13.50;;;6.07;;
73599;SDS011;61877;48.246;9.220;2023-03-12T09:28:18;12.40;;;5.72;;
73599;SDS011;61877;48.246;9.220;2023-03-12T09:31:21;12.65;;;5.93;;
73599;SDS011;61877;48.246;9.220;2023-03-12T09:34:00;11.50;;;5.30;;
73599;SDS011;61877;48.246;9.220;2023-03-12T09:36:38;12.32;;;6.05;;
73599;SDS011;61877;48.246;9.220;2023-03-12T09:45:43;9.73;;;4.38;;
73599;SDS011;61877;48.246;9.220;2023-03-12T09:48:12;9.98;;;4.20;;
73599;SDS011;61877;48.246;9.220;2023-03-12T09:50:54;9.88;;;4.05;;
73599;SDS011;61877;48.246;9.220;2023-03-12T09:53:26;9.83;;;4.20;;
73599;SDS011;61877;48.246;9.220;2023-03-12T09:56:02;9.70;;;4.03;;
73599;SDS011;61877;48.246;9.220;2023-03-12T09:58:43;9.02;;;4.18;;
73599;SDS011;61877;48.246;9.220;2023-03-12T10:04:22;8.90;;;4.07;;
73599;SDS011;61877;48.246;9.220;2023-03-12T10:06:57;9.53;;;4.20;;
73599;SDS011;61877;48.246;9.220;2023-03-12T10:09:35;10.18;;;4.63;;
73599;SDS011;61877;48.246;9.220;2023-03-12T10:12:23;12.48;;;5.45;;
73599;SDS011;61877;48.246;9.220;2023-03-12T10:15:21;11.20;;;4.80;;
73599;SDS011;61877;48.246;9.220;2023-03-12T10:18:09;12.30;;;5.32;;
73599;SDS011;61877;48.246;9.220;2023-03-12T10:21:21;14.67;;;6.30;;
73599;SDS011;61877;48.246;9.220;2023-03-12T10:24:15;12.95;;;5.43;;
73599;SDS011;61877;48.246;9.220;2023-03-12T10:26:59;9.20;;;3.50;;
73599;SDS011;61877;48.246;9.220;2023-03-12T10:30:12;7.82;;;3.05;;
73599;SDS011;61877;48.246;9.220;2023-03-12T10:32:48;8.05;;;3.80;;
73599;SDS011;61877;48.246;9.220;2023-03-12T10:35:36;9.03;;;3.33;;
73599;SDS011;61877;48.246;9.220;2023-03-12T10:38:21;7.60;;;2.80;;
73599;SDS011;61877;48.246;9.220;2023-03-12T10:44:16;7.63;;;2.30;;
73599;SDS011;61877;48.246;9.220;2023-03-12T10:47:01;6.60;;;2.30;;
73599;SDS011;61877;48.246;9.220;2023-03-12T10:52:52;8.65;;;2.67;;
73599;SDS011;61877;48.246;9.220;2023-03-12T10:58:41;10.35;;;2.25;;
73599;SDS011;61877;48.246;9.220;2023-03-12T11:01:15;6.55;;;2.10;;
73599;SDS011;61877;48.246;9.220;2023-03-12T11:03:48;6.97;;;2.00;;
73599;SDS011;61877;48.246;9.220;2023-03-12T11:06:31;7.53;;;2.20;;
73599;SDS011;61877;48.246;9.220;2023-03-12T11:09:15;5.97;;;1.95;;
73599;SDS011;61877;48.246;9.220;2023-03-12T11:11:55;7.63;;;2.28;;
73599;SDS011;61877;48.246;9.220;2023-03-12T11:14:41;7.72;;;2.00;;
73599;SDS011;61877;48.246;9.220;2023-03-12T11:17:18;7.83;;;2.43;;
73599;SDS011;61877;48.246;9.220;2023-03-12T11:19:48;6.97;;;2.20;;
73599;SDS011;61877;48.246;9.220;2023-03-12T11:22:13;7.40;;;2.20;;
73599;SDS011;61877;48.246;9.220;2023-03-12T11:24:57;8.10;;;1.80;;
73599;SDS011;61877;48.246;9.220;2023-03-12T11:27:34;7.87;;;1.87;;
73599;SDS011;61877;48.246;9.220;2023-03-12T11:33:10;15.10;;;5.13;;
73599;SDS011;61877;48.246;9.220;2023-03-12T11:35:40;8.93;;;2.80;;
73599;SDS011;61877;48.246;9.220;2023-03-12T11:38:23;6.80;;;2.00;;
73599;SDS011;61877;48.246;9.220;2023-03-12T11:41:25;7.93;;;1.93;;
73599;SDS011;61877;48.246;9.220;2023-03-12T11:47:15;6.63;;;1.98;;
73599;SDS011;61877;48.246;9.220;2023-03-12T11:50:04;8.00;;;1.80;;
73599;SDS011;61877;48.246;9.220;2023-03-12T11:52:43;5.65;;;1.90;;
73599;SDS011;61877;48.246;9.220;2023-03-12T11:55:20;7.07;;;2.07;;
73599;SDS011;61877;48.246;9.220;2023-03-12T11:58:25;6.68;;;1.65;;
73599;SDS011;61877;48.246;9.220;2023-03-12T12:01:04;7.15;;;1.90;;
73599;SDS011;61877;48.246;9.220;2023-03-12T12:03:55;7.28;;;1.52;;
73599;SDS011;61877;48.246;9.220;2023-03-12T12:06:40;7.65;;;2.20;;
73599;SDS011;61877;48.246;9.220;2023-03-12T12:09:27;7.70;;;2.03;;
73599;SDS011;61877;48.246;9.220;2023-03-12T12:12:04;7.35;;;1.85;;
73599;SDS011;61877;48.246;9.220;2023-03-12T12:14:51;7.13;;;2.10;;
73599;SDS011;61877;48.246;9.220;2023-03-12T12:17:44;7.15;;;1.80;;
73599;SDS011;61877;48.246;9.220;2023-03-12T12:20:26;7.57;;;1.85;;
73599;SDS011;61877;48.246;9.220;2023-03-12T12:23:16;5.77;;;1.43;;
73599;SDS011;61877;48.246;9.220;2023-03-12T12:31:49;15.27;;;8.35;;
73599;SDS011;61877;48.246;9.220;2023-03-12T12:34:42;10.60;;;4.00;;
73599;SDS011;61877;48.246;9.220;2023-03-12T12:40:33;8.60;;;3.58;;
73599;SDS011;61877;48.246;9.220;2023-03-12T12:46:21;6.32;;;1.90;;
73599;SDS011;61877;48.246;9.220;2023-03-12T12:49:05;5.85;;;1.70;;
73599;SDS011;61877;48.246;9.220;2023-03-12T12:51:37;5.97;;;1.60;;
73599;SDS011;61877;48.246;9.220;2023-03-12T12:54:09;5.90;;;1.42;;
73599;SDS011;61877;48.246;9.220;2023-03-12T12:56:44;5.90;;;1.73;;
73599;SDS011;61877;48.246;9.220;2023-03-12T12:59:23;6.20;;;2.00;;
73599;SDS011;61877;48.246;9.220;2023-03-12T13:02:11;7.38;;;2.35;;
73599;SDS011;61877;48.246;9.220;2023-03-12T13:11:27;7.13;;;2.30;;
73599;SDS011;61877;48.246;9.220;2023-03-12T13:16:43;7.63;;;2.55;;
73599;SDS011;61877;48.246;9.220;2023-03-12T13:19:20;7.77;;;2.53;;
73599;SDS011;61877;48.246;9.220;2023-03-12T13:22:07;6.93;;;2.63;;
73599;SDS011;61877;48.246;9.220;2023-03-12T13:24:41;7.63;;;2.65;;
73599;SDS011;61877;48.246;9.220;2023-03-12T13:27:15;8.18;;;2.40;;
73599;SDS011;61877;48.246;9.220;2023-03-12T13:29:53;8.25;;;3.33;;
73599;SDS011;61877;48.246;9.220;2023-03-12T13:35:28;6.35;;;1.90;;
73599;SDS011;61877;48.246;9.220;2023-03-12T13:38:02;6.75;;;1.75;;
73599;SDS011;61877;48.246;9.220;2023-03-12T13:40:33;6.32;;;2.05;;
73599;SDS011;61877;48.246;9.220;2023-03-12T13:43:29;24.20;;;11.80;;
73599;SDS011;61877;48.246;9.220;2023-03-12T13:46:06;6.67;;;2.37;;
73599;SDS011;61877;48.246;9.220;2023-03-12T13:48:51;6.93;;;1.92;;
73599;SDS011;61877;48.246;9.220;2023-03-12T13:51:24;7.10;;;2.10;;
73599;SDS011;61877;48.246;9.220;2023-03-12T13:53:56;6.20;;;1.67;;
73599;SDS011;61877;48.246;9.220;2023-03-12T13:56:25;7.68;;;2.20;;
73599;SDS011;61877;48.246;9.220;2023-03-12T13:58:53;6.20;;;2.17;;
73599;SDS011;61877;48.246;9.220;2023-03-12T14:01:22;5.95;;;1.90;;
73599;SDS011;61877;48.246;9.220;2023-03-12T14:03:54;6.72;;;2.00;;
73599;SDS011;61877;48.246;9.220;2023-03-12T14:06:26;7.45;;;2.22;;
73599;SDS011;61877;48.246;9.220;2023-03-12T14:09:05;6.85;;;1.80;;
73599;SDS011;61877;48.246;9.220;2023-03-12T14:11:46;6.63;;;2.37;;
73599;SDS011;61877;48.246;9.220;2023-03-12T14:14:26;6.65;;;2.00;;
73599;SDS011;61877;48.246;9.220;2023-03-12T14:20:10;6.20;;;1.80;;
73599;SDS011;61877;48.246;9.220;2023-03-12T14:22:40;7.10;;;2.55;;
73599;SDS011;61877;48.246;9.220;2023-03-12T14:25:12;6.83;;;2.10;;
73599;SDS011;61877;48.246;9.220;2023-03-12T14:27:40;7.35;;;2.00;;
73599;SDS011;61877;48.246;9.220;2023-03-12T14:30:20;6.45;;;1.85;;
73599;SDS011;61877;48.246;9.220;2023-03-12T14:32:51;6.32;;;1.60;;
73599;SDS011;61877;48.246;9.220;2023-03-12T14:35:24;6.10;;;2.05;;
73599;SDS011;61877;48.246;9.220;2023-03-12T14:38:02;6.90;;;1.73;;
73599;SDS011;61877;48.246;9.220;2023-03-12T14:40:40;5.25;;;1.65;;
73599;SDS011;61877;48.246;9.220;2023-03-12T14:43:19;5.47;;;1.77;;
73599;SDS011;61877;48.246;9.220;2023-03-12T14:45:55;6.43;;;2.00;;
73599;SDS011;61877;48.246;9.220;2023-03-12T14:48:22;5.78;;;1.90;;
73599;SDS011;61877;48.246;9.220;2023-03-12T14:51:04;6.90;;;1.77;;
73599;SDS011;61877;48.246;9.220;2023-03-12T14:53:50;5.20;;;1.60;;
73599;SDS011;61877;48.246;9.220;2023-03-12T14:59:56;6.72;;;2.28;;
73599;SDS011;61877;48.246;9.220;2023-03-12T15:02:23;6.35;;;1.48;;
73599;SDS011;61877;48.246;9.220;2023-03-12T15:04:54;6.80;;;1.83;;
73599;SDS011;61877;48.246;9.220;2023-03-12T15:07:35;5.63;;;1.65;;
73599;SDS011;61877;48.246;9.220;2023-03-12T15:10:02;6.40;;;1.90;;
73599;SDS011;61877;48.246;9.220;2023-03-12T15:12:32;6.57;;;1.88;;
73599;SDS011;61877;48.246;9.220;2023-03-12T15:15:02;7.72;;;2.10;;
73599;SDS011;61877;48.246;9.220;2023-03-12T15:17:35;5.93;;;1.60;;
73599;SDS011;61877;48.246;9.220;2023-03-12T15:20:02;6.35;;;1.73;;
73599;SDS011;61877;48.246;9.220;2023-03-12T15:22:31;5.45;;;1.50;;
73599;SDS011;61877;48.246;9.220;2023-03-12T15:25:00;5.53;;;1.50;;
73599;SDS011;61877;48.246;9.220;2023-03-12T15:27:38;6.00;;;1.70;;
73599;SDS011;61877;48.246;9.220;2023-03-12T15:30:23;5.72;;;1.75;;
73599;SDS011;61877;48.246;9.220;2023-03-12T15:33:06;7.20;;;2.00;;
73599;SDS011;61877;48.246;9.220;2023-03-12T15:35:37;6.70;;;1.70;;
73599;SDS011;61877;48.246;9.220;2023-03-12T15:38:04;6.35;;;2.05;;
73599;SDS011;61877;48.246;9.220;2023-03-12T15:40:37;6.45;;;1.73;;
73599;SDS011;61877;48.246;9.220;2023-03-12T15:43:03;6.03;;;1.67;;
73599;SDS011;61877;48.246;9.220;2023-03-12T15:45:45;5.97;;;1.80;;
73599;SDS011;61877;48.246;9.220;2023-03-12T15:48:36;5.65;;;1.50;;
73599;SDS011;61877;48.246;9.220;2023-03-12T15:51:26;7.05;;;2.08;;
73599;SDS011;61877;48.246;9.220;2023-03-12T15:57:00;21.25;;;11.20;;
73599;SDS011;61877;48.246;9.220;2023-03-12T15:59:41;9.13;;;3.70;;
73599;SDS011;61877;48.246;9.220;2023-03-12T16:05:33;6.25;;;1.65;;
73599;SDS011;61877;48.246;9.220;2023-03-12T16:08:28;6.32;;;1.70;;
73599;SDS011;61877;48.246;9.220;2023-03-12T16:11:17;6.72;;;1.90;;
73599;SDS011;61877;48.246;9.220;2023-03-12T16:17:04;7.40;;;1.90;;
73599;SDS011;61877;48.246;9.220;2023-03-12T16:22:22;7.97;;;1.83;;
73599;SDS011;61877;48.246;9.220;2023-03-12T16:25:00;7.15;;;2.15;;
73599;SDS011;61877;48.246;9.220;2023-03-12T16:27:36;5.95;;;1.80;;
73599;SDS011;61877;48.246;9.220;2023-03-12T16:30:06;8.80;;;1.90;;
73599;SDS011;61877;48.246;9.220;2023-03-12T16:32:38;9.15;;;2.30;;
73599;SDS011;61877;48.246;9.220;2023-03-12T16:35:07;7.67;;;2.30;;
73599;SDS011;61877;48.246;9.220;2023-03-12T16:37:37;6.93;;;2.38;;
73599;SDS011;61877;48.246;9.220;2023-03-12T16:40:11;8.45;;;2.90;;
73599;SDS011;61877;48.246;9.220;2023-03-12T16:42:40;7.20;;;2.17;;
73599;SDS011;61877;48.246;9.220;2023-03-12T16:48:10;7.03;;;2.70;;
73599;SDS011;61877;48.246;9.220;2023-03-12T16:51:38;9.40;;;2.90;;
73599;SDS011;61877;48.246;9.220;2023-03-12T16:54:01;8.50;;;2.78;;
73599;SDS011;61877;48.246;9.220;2023-03-12T16:56:51;6.78;;;2.03;;
73599;SDS011;61877;48.246;9.220;2023-03-12T16:59:30;7.05;;;2.15;;